createdAt,value
2023-09-27T00:03:12.303Z,101115.88
2023-09-27T00:08:14.733Z,101100.78
2023-09-27T00:13:17.276Z,101100.34
2023-09-27T00:18:19.679Z,101102.53
2023-09-27T00:23:21.873Z,101101.78
2023-09-27T00:28:24.245Z,101109.41
2023-09-27T00:33:27.710Z,101102.69
2023-09-27T00:38:29.962Z,101099.28
2023-09-27T00:43:33.171Z,101093.81
2023-09-27T00:48:38.430Z,101107.56
2023-09-27T00:53:42.449Z,101111.78
2023-09-27T00:58:44.856Z,101109.00
2023-09-27T01:03:48.343Z,101110.75
2023-09-27T01:08:50.545Z,101110.44
2023-09-27T01:13:52.794Z,101113.44
2023-09-27T01:18:55.255Z,101117.91
2023-09-27T01:23:58.481Z,101119.97
2023-09-27T01:29:00.881Z,101112.59
2023-09-27T01:34:03.229Z,101123.44
2023-09-27T01:39:08.288Z,101120.44
2023-09-27T01:44:10.487Z,101129.25
2023-09-27T01:49:12.651Z,101120.75
2023-09-27T01:54:14.830Z,101124.28
2023-09-27T01:59:17.161Z,101120.50
2023-09-27T02:04:19.346Z,101119.44
2023-09-27T02:09:21.488Z,101119.44
2023-09-27T02:14:23.680Z,101114.28
2023-09-27T02:19:25.895Z,101132.16
2023-09-27T02:24:29.348Z,101124.50
2023-09-27T02:29:31.791Z,101124.28
2023-09-27T02:34:35.126Z,101129.03
2023-09-27T02:39:37.448Z,101124.28
2023-09-27T02:44:40.243Z,101121.78
2023-09-27T02:49:42.409Z,101126.38
2023-09-27T02:54:46.721Z,101129.00
2023-09-27T02:59:49.038Z,101126.31
2023-09-27T03:04:51.238Z,101129.53
2023-09-27T03:09:53.374Z,101134.56
2023-09-27T03:14:55.693Z,101124.72
2023-09-27T03:19:57.918Z,101127.88
2023-09-27T03:25:01.517Z,101135.16
2023-09-27T03:30:07.592Z,101135.53
2023-09-27T03:35:10.221Z,101127.19
2023-09-27T03:40:15.422Z,101130.06
2023-09-27T03:45:18.534Z,101132.00
2023-09-27T03:50:20.828Z,101127.56
2023-09-27T03:55:23.048Z,101139.91
2023-09-27T04:00:27.296Z,101131.72
2023-09-27T04:05:29.757Z,101136.50
2023-09-27T04:10:32.827Z,101132.53
2023-09-27T04:15:36.805Z,101133.66
2023-09-27T04:20:39.981Z,101143.03
2023-09-27T04:25:43.043Z,101130.31
2023-09-27T04:30:45.221Z,101140.97
2023-09-27T04:35:48.621Z,101149.56
2023-09-27T04:40:52.464Z,101152.72
2023-09-27T04:45:54.738Z,101145.97
2023-09-27T04:51:00.510Z,101156.16
2023-09-27T04:56:04.031Z,101158.09
2023-09-27T05:01:07.339Z,101152.84
2023-09-27T05:06:09.770Z,101156.50
2023-09-27T05:11:13.508Z,101154.00
2023-09-27T05:16:16.538Z,101156.44
2023-09-27T05:21:18.878Z,101160.91
2023-09-27T05:26:21.124Z,101165.53
2023-09-27T05:31:23.539Z,101170.97
2023-09-27T05:36:25.751Z,101170.59
2023-09-27T05:41:28.013Z,101180.78
2023-09-27T05:46:30.664Z,101186.63
2023-09-27T05:51:32.888Z,101181.03
2023-09-27T05:56:35.015Z,101185.97
2023-09-27T06:01:37.283Z,101190.94
2023-09-27T06:06:40.407Z,101185.63
2023-09-27T06:11:42.757Z,101196.41
2023-09-27T06:16:46.412Z,101191.28
2023-09-27T06:21:50.315Z,101199.72
2023-09-27T06:27:00.567Z,101211.59
2023-09-27T06:32:02.807Z,101211.03
2023-09-27T06:37:05.202Z,101224.53
2023-09-27T06:42:08.506Z,101225.56
2023-09-27T06:47:10.836Z,101232.59
2023-09-27T06:52:13.197Z,101230.41
2023-09-27T06:57:15.849Z,101235.84
2023-09-27T07:02:18.128Z,101237.41
2023-09-27T07:07:20.338Z,101245.53
2023-09-27T07:12:23.897Z,101238.25
2023-09-27T07:17:28.433Z,101238.38
2023-09-27T07:22:33.663Z,101244.22
2023-09-27T07:27:36.666Z,101245.59
2023-09-27T07:32:40.894Z,101244.50
2023-09-27T07:37:43.739Z,101254.81
2023-09-27T07:42:46.435Z,101250.25
2023-09-27T07:47:51.827Z,101257.22
2023-09-27T07:53:02.996Z,101259.38
2023-09-27T07:58:06.068Z,101260.37
2023-09-27T08:03:12.285Z,101252.19
2023-09-27T08:08:15.584Z,101251.41
2023-09-27T08:13:19.561Z,101264.03
2023-09-27T08:18:21.916Z,101254.16
2023-09-27T08:23:24.157Z,101261.94
2023-09-27T08:28:26.869Z,101238.84
2023-09-27T08:33:29.284Z,101239.59
2023-09-27T08:38:31.788Z,101238.00
2023-09-27T08:43:34.227Z,101232.38
2023-09-27T08:48:38.163Z,101229.03
2023-09-27T08:53:43.399Z,101227.72
2023-09-27T08:58:49.466Z,101226.00
2023-09-27T09:03:53.910Z,101229.78
2023-09-27T09:08:56.523Z,101219.69
2023-09-27T09:14:08.049Z,101219.66
2023-09-27T09:24:39.754Z,101200.84
2023-09-27T09:29:47.922Z,101206.47
2023-09-27T09:34:55.251Z,101201.47
2023-09-27T09:40:16.539Z,101194.78
2023-09-27T09:45:21.097Z,101200.13
2023-09-27T09:50:23.436Z,101184.44
2023-09-27T09:56:01.096Z,101175.84
2023-09-27T10:01:01.223Z,101172.00
2023-09-27T10:06:05.386Z,101167.00
2023-09-27T10:11:07.918Z,101165.78
2023-09-27T10:16:11.632Z,101159.41
2023-09-27T10:21:17.261Z,101156.41
2023-09-27T10:26:37.669Z,101147.03
2023-09-27T10:32:15.221Z,101135.25
2023-09-27T10:37:19.700Z,101130.53
2023-09-27T10:42:43.633Z,101124.38
2023-09-27T10:47:48.121Z,101116.00
2023-09-27T10:52:50.621Z,101120.34
2023-09-27T10:57:53.184Z,101112.53
2023-09-27T11:02:56.571Z,101102.03
2023-09-27T11:07:58.861Z,101093.84
2023-09-27T11:13:13.328Z,101081.84
2023-09-27T11:18:16.148Z,101073.31
2023-09-27T11:23:21.407Z,101058.19
2023-09-27T11:28:24.997Z,101049.31
2023-09-27T11:33:34.371Z,101050.00
2023-09-27T11:38:36.718Z,101048.88
2023-09-27T11:43:38.984Z,101042.50
2023-09-27T11:48:41.185Z,101030.22
2023-09-27T11:53:43.388Z,101027.13
2023-09-27T11:58:45.568Z,101022.34
2023-09-27T12:03:50.862Z,101013.03
2023-09-27T12:08:59.487Z,101016.28
2023-09-27T12:14:02.335Z,100994.34
2023-09-27T12:19:06.337Z,100991.12
2023-09-27T12:24:09.011Z,100980.09
2023-09-27T12:29:11.391Z,100983.66
2023-09-27T12:34:13.592Z,100982.87
2023-09-27T12:39:16.027Z,100972.66
2023-09-27T12:44:22.973Z,100962.63
2023-09-27T12:49:26.610Z,100970.22
2023-09-27T12:54:28.975Z,100956.94
2023-09-27T12:59:31.277Z,100941.31
2023-09-27T13:04:35.848Z,100939.81
2023-09-27T13:09:38.710Z,100932.81
2023-09-27T13:14:41.082Z,100936.16
2023-09-27T13:19:43.660Z,100924.28
2023-09-27T13:24:45.905Z,100916.78
2023-09-27T13:29:48.143Z,100908.34
2023-09-27T13:34:50.680Z,100900.69
2023-09-27T13:39:52.909Z,100897.53
2023-09-27T13:44:55.164Z,100890.03
2023-09-27T13:49:57.566Z,100890.19
2023-09-27T13:55:00.076Z,100880.13
2023-09-27T14:00:04.872Z,100885.63
2023-09-27T14:05:07.805Z,100879.28
2023-09-27T14:10:11.920Z,100882.16
2023-09-27T14:15:15.851Z,100879.41
2023-09-27T14:20:20.397Z,100864.31
2023-09-27T14:25:25.954Z,100870.84
2023-09-27T14:30:30.191Z,100861.00
2023-09-27T14:40:37.682Z,100858.78
2023-09-27T14:45:40.447Z,100866.88
2023-09-27T14:50:42.758Z,100863.75
2023-09-27T14:55:46.551Z,100864.06
2023-09-27T15:00:51.483Z,100855.25
2023-09-27T15:05:53.685Z,100861.59
2023-09-27T15:10:58.645Z,100859.94
2023-09-27T15:16:01.966Z,100863.16
2023-09-27T15:21:04.324Z,100860.87
2023-09-27T15:26:06.491Z,100868.44
2023-09-27T15:31:10.641Z,100866.06
2023-09-27T15:36:13.109Z,100866.56
2023-09-27T15:41:16.855Z,100870.47
2023-09-27T15:46:20.860Z,100870.09
2023-09-27T15:51:23.292Z,100873.41
2023-09-27T15:56:25.603Z,100876.28
2023-09-27T16:01:28.014Z,100882.88
2023-09-27T16:06:31.232Z,100883.53
2023-09-27T16:11:34.504Z,100886.81
2023-09-27T16:16:36.787Z,100892.78
2023-09-27T16:21:39.024Z,100887.03
2023-09-27T16:26:41.574Z,100885.72
2023-09-27T16:31:44.897Z,100887.22
2023-09-27T16:36:47.376Z,100900.09
2023-09-27T16:41:50.322Z,100903.22
2023-09-27T16:46:52.508Z,100908.13
2023-09-27T16:51:54.849Z,100898.50
2023-09-27T16:56:57.140Z,100889.31
2023-09-27T17:01:59.520Z,100898.00
2023-09-27T17:07:01.838Z,100901.28
2023-09-27T17:12:04.660Z,100902.44
2023-09-27T17:17:07.060Z,100908.72
2023-09-27T17:22:09.267Z,100911.31
2023-09-27T17:27:14.238Z,100909.88
2023-09-27T17:32:16.467Z,100917.03
2023-09-27T17:37:18.695Z,100909.00
2023-09-27T17:42:21.320Z,100914.53
2023-09-27T17:47:26.120Z,100919.06
2023-09-27T17:52:28.567Z,100923.22
2023-09-27T17:57:30.797Z,100918.84
2023-09-27T18:02:34.182Z,100915.91
2023-09-27T18:07:36.659Z,100921.97
2023-09-27T18:13:09.520Z,100926.09
2023-09-27T18:18:12.969Z,100921.22
2023-09-27T18:23:20.292Z,100925.66
2023-09-27T18:28:25.340Z,100922.69
2023-09-27T18:33:28.025Z,100929.94
2023-09-27T18:38:36.806Z,100931.09
2023-09-27T18:43:39.159Z,100936.19
2023-09-27T18:48:41.444Z,100934.88
2023-09-27T18:53:43.692Z,100944.72
2023-09-27T18:59:12.201Z,100940.09
2023-09-27T19:04:19.549Z,100940.47
2023-09-27T19:09:25.660Z,100927.94
2023-09-27T19:14:35.484Z,100926.00
2023-09-27T19:19:45.027Z,100932.91
2023-09-27T19:24:47.505Z,100940.53
2023-09-27T19:29:49.961Z,100938.03
2023-09-27T19:34:52.457Z,100939.69
2023-09-27T19:39:55.086Z,100943.84
2023-09-27T19:45:00.992Z,100943.81
2023-09-27T19:50:04.361Z,100935.41
2023-09-27T19:55:09.319Z,100934.84
2023-09-27T20:00:17.736Z,100927.75
2023-09-27T20:05:22.014Z,100937.03
2023-09-27T20:10:25.450Z,100935.84
2023-09-27T20:15:27.669Z,100939.53
2023-09-27T20:20:29.872Z,100935.84
2023-09-27T20:25:32.091Z,100930.16
2023-09-27T20:30:34.383Z,100926.03
2023-09-27T20:35:38.027Z,100938.06
2023-09-27T20:40:40.309Z,100939.19
2023-09-27T20:45:42.624Z,100936.16
2023-09-27T20:50:44.786Z,100948.28
2023-09-27T20:55:46.962Z,100945.63
2023-09-27T21:00:49.231Z,100950.38
2023-09-27T21:05:51.479Z,100946.28
2023-09-27T21:10:53.973Z,100939.75
2023-09-27T21:15:56.232Z,100938.03
2023-09-27T21:20:58.456Z,100932.44
2023-09-27T21:26:00.859Z,100939.53
2023-09-27T21:31:16.626Z,100942.53
2023-09-27T21:36:19.114Z,100932.41
2023-09-27T21:41:21.340Z,100935.63
2023-09-27T21:46:23.631Z,100931.19
2023-09-27T21:51:25.889Z,100935.63
2023-09-27T21:56:28.094Z,100942.16
2023-09-27T22:01:30.455Z,100933.53
2023-09-27T22:06:32.678Z,100930.19
2023-09-27T22:11:34.896Z,100932.16
2023-09-27T22:16:37.692Z,100916.19
2023-09-27T22:21:45.835Z,100915.91
2023-09-27T22:32:14.411Z,100911.97
2023-09-27T22:37:16.749Z,100911.97
2023-09-27T22:42:18.997Z,100926.62
2023-09-27T22:47:21.540Z,100917.75
2023-09-27T22:52:24.124Z,100915.69
2023-09-27T22:57:27.856Z,100919.22
2023-09-27T23:02:30.050Z,100926.84
2023-09-27T23:07:32.254Z,100920.34
2023-09-27T23:12:37.266Z,100921.16
2023-09-27T23:17:58.124Z,100922.13
2023-09-27T23:23:07.733Z,100921.94
2023-09-27T23:28:17.796Z,100923.12
2023-09-27T23:33:20.460Z,100919.88
2023-09-27T23:38:41.201Z,100926.09
2023-09-27T23:43:43.428Z,100920.72
2023-09-27T23:48:45.753Z,100929.16
2023-09-27T23:53:54.322Z,100923.41
2023-09-27T23:59:21.040Z,100923.62
